< < Back
Terminal Aerodrome Forecast


Current Version              Previous Versions:   1  2  3  4  5  6  7  8  9  

Terminal Aerodrome Forecast

997
FTUS44 KMOB 010500 RRA
TAFPNS
TAF
KPNS 010550Z 0106/0206 09004KT P6SM FEW030
     FM011000 00000KT 4SM BR SCT010
     FM011400 07004KT P6SM FEW010=

Latest METAR

641
SAUS70 KWBC 010600 RRX
MTRPNS
METAR KPNS 010553Z AUTO 03004KT 10SM CLR 21/19 A2990 RMK AO2 SLP124
T02110194 10244 20206 402670206 58001


USA.gov is the U.S. government's official web portal to all federal, state and local government web resources and services.